GMT,Max TemperatureF,Mean TemperatureF,Min TemperatureF,Max Dew PointF,MeanDew PointF,Min DewpointF,Max Humidity, Mean Humidity, Min Humidity, Max Sea Level PressureIn, Mean Sea Level PressureIn, Min Sea Level PressureIn, Max VisibilityMiles, Mean VisibilityMiles, Min VisibilityMiles, Max Wind SpeedMPH, Mean Wind SpeedMPH, Max Gust SpeedMPH,PrecipitationIn, CloudCover, Events, WindDirDegrees
2012-10-1,57,52,48,50,48,46,93,82,67,29.65,29.59,29.53,6,6,4,20,15,,0.00,4,Rain,215
2012-10-2,55,52,48,48,46,45,93,82,72,29.59,29.45,29.30,6,6,4,16,11,24,0.00,5,Rain,197
2012-10-3,53,47,41,45,43,37,93,82,71,29.53,29.44,29.33,6,6,6,17,12,,0.00,3,Rain,248
2012-10-4,55,46,37,48,43,36,100,84,72,29.65,29.60,29.53,6,6,6,14,5,,0.00,2,Rain,171
2012-10-5,55,50,44,46,44,43,93,80,67,29.74,29.60,29.47,6,6,4,14,8,,0.00,4,Rain,252
2012-10-6,57,48,37,48,44,36,94,80,62,30.09,29.91,29.74,6,6,6,16,7,,0.00,3,Rain,298
2012-10-7,57,45,33,43,37,30,93,77,51,30.21,30.17,30.09,6,6,6,7,3,,0.00,1,,126
2012-10-8,53,44,35,45,40,34,93,79,67,30.15,30.05,30.01,6,6,6,9,2,,0.00,4,,6
2012-10-9,57,45,33,39,36,32,93,74,48,30.09,30.07,30.04,6,6,6,6,1,,0.00,2,,40
2012-10-10,53,43,33,48,41,32,93,80,62,30.04,29.91,29.74,6,6,6,10,4,,0.00,3,,121
2012-10-11,53,50,48,50,48,46,100,90,77,29.74,29.58,29.53,6,4,2,16,9,,0.00,5,Rain,69
2012-10-12,51,50,48,48,44,41,100,82,71,29.59,29.54,29.50,6,6,3,25,14,37,0.00,4,Rain,285
2012-10-13,55,50,46,45,42,37,87,77,58,29.62,29.59,29.56,6,6,6,17,10,,0.00,4,Rain,255
2012-10-14,53,47,41,45,42,39,93,82,62,29.68,29.63,29.56,6,6,5,8,4,,0.00,4,Rain,72
2012-10-15,50,42,33,43,38,34,100,84,62,29.62,29.48,29.36,6,5,0,7,3,,0.00,2,Fog-Rain,144
2012-10-16,50,44,39,41,39,37,93,85,66,29.50,29.38,29.24,6,5,3,10,6,,0.00,5,Rain,24
2012-10-17,51,45,39,48,43,37,94,89,81,29.47,29.30,29.21,6,6,3,14,7,23,0.00,4,Rain,86
2012-10-18,53,48,44,50,46,41,94,89,82,29.62,29.46,29.33,6,6,4,12,6,,0.00,3,Rain,65
2012-10-19,55,52,48,50,49,46,100,91,77,29.77,29.73,29.65,6,6,4,9,5,,0.00,4,Rain,88
2012-10-20,57,52,46,50,47,45,100,89,72,30.04,29.90,29.77,6,6,6,10,4,,0.00,2,Rain,172
2012-10-21,60,51,42,50,45,39,100,84,59,30.21,30.14,30.04,6,6,6,8,4,,0.00,1,,108
2012-10-22,53,47,41,46,44,37,93,84,76,30.36,30.28,30.21,6,6,6,10,6,,0.00,2,,59
2012-10-23,55,52,50,50,49,46,94,88,82,30.39,30.37,30.33,6,6,6,12,7,,0.00,6,,41
2012-10-24,53,46,39,50,45,37,94,84,76,30.36,30.29,30.24,6,6,6,12,7,,0.00,5,,54
2012-10-25,50,42,35,46,38,30,93,83,70,30.27,30.20,30.15,6,6,6,15,3,,0.00,4,,52
2012-10-26,44,37,30,32,28,21,93,73,42,30.27,30.18,30.09,6,6,6,10,3,,0.00,1,,358
2012-10-27,50,38,28,46,34,23,93,79,62,30.27,30.18,29.98,6,6,4,18,7,24,0.00,5,Rain,274
2012-10-28,50,48,46,48,46,45,94,89,82,29.95,29.69,29.56,6,6,4,21,14,33,0.00,6,Rain,238
2012-10-29,50,44,37,45,40,36,100,86,76,29.80,29.75,29.62,6,6,6,15,3,,0.00,3,Fog-Rain,295
2012-10-30,50,48,46,46,44,41,93,86,81,29.68,29.40,29.06,6,6,3,23,15,33,0.00,5,Rain,229
2012-10-31,48,42,35,45,41,36,100,93,82,29.03,28.84,28.80,6,6,4,21,9,32,0.00,4,Rain,160